Time;durP1;ratioP1;P1;durP2;ratioP2;P2;SDS_P1;SDS_P2;PMS_P1;PMS_P2;Temp;Humidity;BMP_temperature;BMP_pressure;BME280_temperature;BME280_humidity;BME280_pressure;Samples;Min_cycle;Max_cycle;Signal;HPM_P1;HPM_P2
2022/09/27 00:00:29;;;;;;;16.40;10.90;;;15.10;84.50;;;;;;5093323;28;20040;-19
2022/09/27 00:02:55;;;;;;;16.33;10.30;;;15.00;84.10;;;;;;5095198;28;20089;-19
2022/09/27 00:05:22;;;;;;;15.07;10.10;;;15.00;84.00;;;;;;5095274;28;20119;-20
2022/09/27 00:07:48;;;;;;;14.75;9.65;;;15.00;83.90;;;;;;5095504;28;20040;-21
2022/09/27 00:10:15;;;;;;;14.27;10.25;;;15.00;83.80;;;;;;5095465;28;20016;-19
2022/09/27 00:12:41;;;;;;;17.60;10.85;;;15.00;83.50;;;;;;5095354;28;20036;-19
2022/09/27 00:15:08;;;;;;;18.25;12.45;;;15.00;83.60;;;;;;5094118;28;20459;-18
2022/09/27 00:17:37;;;;;;;22.15;14.13;;;15.00;84.40;;;;;;5096126;28;20028;-20
2022/09/27 00:20:04;;;;;;;20.25;12.65;;;14.90;85.20;;;;;;5094895;28;20023;-18
2022/09/27 00:22:31;;;;;;;20.25;13.45;;;14.90;85.00;;;;;;5094942;28;20024;-19
2022/09/27 00:24:57;;;;;;;19.90;13.02;;;14.90;84.90;;;;;;5094664;28;20111;-21
2022/09/27 00:27:25;;;;;;;19.90;13.43;;;14.90;85.30;;;;;;5095725;28;20020;-21
2022/09/27 00:29:52;;;;;;;17.65;11.40;;;14.80;85.40;;;;;;5094672;28;20024;-20
2022/09/27 00:32:19;;;;;;;19.63;13.55;;;14.80;85.20;;;;;;5141894;22;20020;-19
2022/09/27 00:34:45;;;;;;;19.38;12.15;;;14.80;85.00;;;;;;5034598;28;20048;-15
2022/09/27 00:37:11;;;;;;;19.08;12.02;;;14.80;84.90;;;;;;5034582;28;20018;-16
2022/09/27 00:39:40;;;;;;;19.83;12.85;;;14.80;85.00;;;;;;5035025;28;20377;-15
2022/09/27 00:42:11;;;;;;;17.50;11.77;;;14.70;85.30;;;;;;5034295;28;20022;-16
2022/09/27 00:44:40;;;;;;;17.48;10.93;;;14.80;84.60;;;;;;5034653;28;20030;-16
2022/09/27 00:47:19;;;;;;;19.88;13.65;;;14.80;84.90;;;;;;5034300;28;20056;-15
2022/09/27 00:50:04;;;;;;;18.17;12.43;;;14.70;85.30;;;;;;5034287;28;20043;-15
2022/09/27 00:52:51;;;;;;;17.55;11.93;;;14.70;85.60;;;;;;5034266;28;20037;-15
2022/09/27 00:55:24;;;;;;;19.45;12.35;;;14.70;85.50;;;;;;5034296;28;20493;-15
2022/09/27 00:57:51;;;;;;;17.33;11.55;;;14.60;85.70;;;;;;5034629;28;20032;-15
2022/09/27 01:00:18;;;;;;;16.20;10.23;;;14.60;85.50;;;;;;5033946;28;20079;-15
2022/09/27 01:02:49;;;;;;;14.52;9.90;;;14.60;85.50;;;;;;5033909;28;20021;-16
2022/09/27 01:05:19;;;;;;;17.55;11.95;;;14.60;85.10;;;;;;5034315;28;20041;-17
2022/09/27 01:07:45;;;;;;;15.10;9.55;;;14.60;85.30;;;;;;5034279;28;20384;-16
2022/09/27 01:10:13;;;;;;;12.45;8.32;;;14.60;85.30;;;;;;5033911;28;20029;-16
2022/09/27 01:13:04;;;;;;;13.32;8.70;;;14.60;84.90;;;;;;5032565;28;20043;-16
2022/09/27 01:15:45;;;;;;;14.07;8.75;;;14.60;85.00;;;;;;5033403;28;20136;-16
2022/09/27 01:18:34;;;;;;;13.88;9.52;;;14.60;85.20;;;;;;5033654;28;20388;-16
2022/09/27 01:21:22;;;;;;;13.02;8.48;;;14.50;85.30;;;;;;5033568;28;20082;-17
2022/09/27 01:24:30;;;;;;;11.18;7.97;;;14.50;85.20;;;;;;5033877;28;20109;-16
2022/09/27 01:27:08;;;;;;;12.13;6.88;;;14.50;84.60;;;;;;5033313;28;20042;-16
2022/09/27 01:30:07;;;;;;;9.23;6.40;;;14.50;84.10;;;;;;5033623;28;20029;-16
2022/09/27 01:32:46;;;;;;;9.57;6.35;;;14.50;83.90;;;;;;5033177;28;20080;-18
2022/09/27 01:35:42;;;;;;;10.40;6.93;;;14.50;83.80;;;;;;5033812;28;20043;-16
2022/09/27 01:38:15;;;;;;;12.57;7.75;;;14.50;83.70;;;;;;5033416;28;20037;-15
2022/09/27 01:41:10;;;;;;;11.37;7.73;;;14.50;84.00;;;;;;5033317;28;20489;-16
2022/09/27 01:43:58;;;;;;;12.05;8.25;;;14.50;84.30;;;;;;5033676;28;20083;-15
2022/09/27 01:46:39;;;;;;;11.32;8.07;;;14.50;84.30;;;;;;5033343;28;20026;-16
2022/09/27 01:49:12;;;;;;;11.60;7.60;;;14.50;84.50;;;;;;5033874;28;20067;-17
2022/09/27 01:51:51;;;;;;;12.10;8.00;;;14.40;84.50;;;;;;5033233;28;20075;-16
2022/09/27 01:54:26;;;;;;;11.48;7.43;;;14.40;84.40;;;;;;5032378;28;20030;-16
2022/09/27 01:56:56;;;;;;;10.57;7.38;;;14.40;84.20;;;;;;5033319;28;20029;-15
2022/09/27 01:59:40;;;;;;;10.20;7.32;;;14.40;84.20;;;;;;5033728;28;20060;-15
2022/09/27 02:02:10;;;;;;;10.18;7.53;;;14.40;84.10;;;;;;5032856;28;20040;-16
2022/09/27 02:04:40;;;;;;;10.68;6.97;;;14.30;84.30;;;;;;5033095;28;20177;-16
2022/09/27 02:07:17;;;;;;;13.10;6.55;;;14.30;84.10;;;;;;5033468;28;20092;-15
2022/09/27 02:09:53;;;;;;;9.13;6.28;;;14.30;84.20;;;;;;5033391;28;20025;-17
2022/09/27 02:12:24;;;;;;;11.75;8.18;;;14.30;84.00;;;;;;5033359;28;20048;-16
2022/09/27 02:14:57;;;;;;;8.57;5.53;;;14.20;84.20;;;;;;5033539;28;20025;-16
2022/09/27 02:17:23;;;;;;;8.50;6.25;;;14.20;83.80;;;;;;5032870;28;20022;-15
2022/09/27 02:20:04;;;;;;;10.57;7.20;;;14.20;83.90;;;;;;5033305;28;20071;-15
2022/09/27 02:22:30;;;;;;;9.98;7.10;;;14.20;84.00;;;;;;5033006;28;20140;-17
2022/09/27 02:25:21;;;;;;;13.73;8.70;;;14.30;84.10;;;;;;5032711;28;20056;-15
2022/09/27 02:27:59;;;;;;;13.07;9.05;;;14.20;84.30;;;;;;5033701;28;20404;-15
2022/09/27 02:30:25;;;;;;;15.10;9.65;;;14.20;84.70;;;;;;5032944;28;20061;-16
2022/09/27 02:32:52;;;;;;;12.48;8.68;;;14.20;85.20;;;;;;5032403;28;20045;-16
2022/09/27 02:35:30;;;;;;;9.48;7.50;;;14.10;85.00;;;;;;5033194;28;20028;-15
2022/09/27 02:37:57;;;;;;;10.32;7.40;;;14.20;84.80;;;;;;5035353;28;20385;-15
2022/09/27 02:40:28;;;;;;;12.05;8.48;;;14.10;84.50;;;;;;5036555;28;20056;-14
2022/09/27 02:42:55;;;;;;;14.30;10.10;;;14.20;84.70;;;;;;5036498;28;20071;-16
2022/09/27 02:45:21;;;;;;;13.50;9.77;;;14.10;85.20;;;;;;5035397;28;20065;-14
2022/09/27 02:50:39;;;;;;;13.75;9.90;;;14.10;85.90;;;;;;5072814;26;20459;-18
2022/09/27 02:53:33;;;;;;;13.38;10.20;;;14.00;86.00;;;;;;5076275;28;20467;-18
2022/09/27 02:56:01;;;;;;;13.52;9.80;;;14.00;86.10;;;;;;5076760;28;20025;-15
2022/09/27 02:58:27;;;;;;;13.98;9.88;;;14.00;86.20;;;;;;5076486;28;20020;-19
2022/09/27 03:01:04;;;;;;;14.45;10.38;;;13.90;86.20;;;;;;5076102;28;20047;-18
2022/09/27 03:03:52;;;;;;;14.40;10.30;;;13.90;86.30;;;;;;5076441;28;20020;-20
2022/09/27 03:06:22;;;;;;;14.30;10.50;;;13.90;86.30;;;;;;5076511;28;20365;-20
2022/09/27 03:08:48;;;;;;;13.82;10.00;;;13.90;86.40;;;;;;5075883;28;20025;-18
2022/09/27 03:11:14;;;;;;;13.43;9.68;;;13.90;86.40;;;;;;5076582;28;20480;-20
2022/09/27 03:13:42;;;;;;;12.25;8.73;;;13.90;86.30;;;;;;5076066;28;20487;-18
2022/09/27 03:16:08;;;;;;;12.20;8.85;;;13.90;86.20;;;;;;5075907;28;20020;-19
2022/09/27 03:18:34;;;;;;;15.43;10.15;;;13.90;86.10;;;;;;5076017;28;20020;-20
2022/09/27 03:21:00;;;;;;;13.63;10.05;;;13.90;86.20;;;;;;5075586;28;20064;-19
2022/09/27 03:23:27;;;;;;;10.90;7.85;;;13.90;86.30;;;;;;5075829;28;20063;-18
2022/09/27 03:25:53;;;;;;;12.30;8.77;;;13.90;86.10;;;;;;5076413;28;20078;-18
2022/09/27 03:28:19;;;;;;;11.80;8.82;;;13.90;86.20;;;;;;5075753;28;20067;-19
2022/09/27 03:30:46;;;;;;;12.07;8.60;;;13.90;86.20;;;;;;5075832;28;20052;-19
2022/09/27 03:33:12;;;;;;;11.52;8.30;;;13.90;85.90;;;;;;5075737;28;20028;-19
2022/09/27 03:35:38;;;;;;;12.75;8.32;;;13.90;85.80;;;;;;5074393;28;20516;-20
2022/09/27 03:38:06;;;;;;;13.50;8.75;;;13.90;86.00;;;;;;5075671;28;20024;-20
2022/09/27 03:40:32;;;;;;;13.55;8.80;;;13.90;86.00;;;;;;5075748;28;20091;-19
2022/09/27 03:42:58;;;;;;;10.95;7.68;;;13.90;86.00;;;;;;5057399;28;20039;-19
2022/09/27 03:45:24;;;;;;;10.30;7.25;;;13.90;86.00;;;;;;5075380;28;20024;-18
2022/09/27 03:47:50;;;;;;;13.15;8.80;;;13.90;85.90;;;;;;5075488;28;20025;-18
2022/09/27 03:50:16;;;;;;;9.85;7.03;;;13.90;86.10;;;;;;5075048;28;20100;-19
2022/09/27 03:52:43;;;;;;;12.93;7.72;;;13.90;85.90;;;;;;5117485;22;20052;-16
2022/09/27 03:55:13;;;;;;;11.82;8.52;;;13.90;85.50;;;;;;5055159;28;20475;-15
2022/09/27 03:57:44;;;;;;;14.82;9.02;;;13.90;85.60;;;;;;5055848;28;20031;-16
2022/09/27 04:00:10;;;;;;;12.20;8.30;;;13.90;85.70;;;;;;5055412;28;20033;-15
2022/09/27 04:02:36;;;;;;;10.30;7.80;;;13.90;85.50;;;;;;5055057;28;20104;-15
2022/09/27 04:05:03;;;;;;;11.52;8.48;;;13.90;85.30;;;;;;5054805;28;20140;-18
2022/09/27 04:07:29;;;;;;;14.10;8.82;;;13.90;85.50;;;;;;5055403;28;20115;-16
2022/09/27 04:09:55;;;;;;;12.77;9.63;;;13.90;85.50;;;;;;5055264;28;20102;-16
2022/09/27 04:12:21;;;;;;;12.40;8.95;;;13.90;85.50;;;;;;5055143;28;20423;-15
2022/09/27 04:14:48;;;;;;;13.27;8.98;;;13.90;85.50;;;;;;5055086;28;20078;-16
2022/09/27 04:17:14;;;;;;;12.50;7.97;;;13.90;85.50;;;;;;5054705;28;20025;-16
2022/09/27 04:19:40;;;;;;;13.23;9.73;;;13.90;85.50;;;;;;5055112;28;20025;-17
2022/09/27 04:22:06;;;;;;;13.77;9.40;;;13.90;85.60;;;;;;5053344;28;20083;-18
2022/09/27 04:24:32;;;;;;;13.02;9.32;;;13.90;85.60;;;;;;5054670;28;20025;-17
2022/09/27 04:26:58;;;;;;;14.05;9.27;;;13.90;85.70;;;;;;5055039;28;20371;-15
2022/09/27 04:29:24;;;;;;;13.15;9.40;;;13.90;85.70;;;;;;5055077;28;20096;-15
2022/09/27 04:31:50;;;;;;;14.25;9.50;;;13.90;85.70;;;;;;5054516;28;20021;-16
2022/09/27 04:34:16;;;;;;;12.63;9.20;;;13.90;85.80;;;;;;5054755;28;20032;-17
2022/09/27 04:36:42;;;;;;;13.10;8.95;;;13.90;85.80;;;;;;5054967;28;20093;-18
2022/09/27 04:39:09;;;;;;;12.48;8.43;;;13.80;86.00;;;;;;5054205;28;20036;-16
2022/09/27 04:41:35;;;;;;;10.82;7.75;;;13.80;86.00;;;;;;5054879;28;20032;-15
2022/09/27 04:44:01;;;;;;;10.52;7.45;;;13.80;86.00;;;;;;5054608;28;20029;-15
2022/09/27 04:46:31;;;;;;;12.10;8.15;;;13.80;86.10;;;;;;5053099;28;20029;-16
2022/09/27 04:48:59;;;;;;;11.35;7.63;;;13.80;86.10;;;;;;5054445;28;20021;-16
2022/09/27 04:51:25;;;;;;;12.68;7.20;;;13.80;86.10;;;;;;5053949;28;20037;-16
2022/09/27 04:53:52;;;;;;;10.55;7.10;;;13.80;86.10;;;;;;5054158;28;20021;-15
2022/09/27 04:56:18;;;;;;;9.35;6.70;;;13.70;86.10;;;;;;5054380;28;20051;-17
2022/09/27 04:58:44;;;;;;;10.65;6.65;;;13.70;86.10;;;;;;5054376;28;20025;-16
2022/09/27 05:01:10;;;;;;;10.30;7.03;;;13.80;86.00;;;;;;5139685;22;20051;-17
2022/09/27 05:03:36;;;;;;;7.22;5.07;;;13.80;85.80;;;;;;5074889;28;20024;-17
2022/09/27 05:06:02;;;;;;;10.70;6.80;;;13.80;85.50;;;;;;5074177;28;20029;-19
2022/09/27 05:08:28;;;;;;;9.70;6.53;;;13.90;85.30;;;;;;5074392;28;20046;-19
2022/09/27 05:10:54;;;;;;;10.77;7.18;;;13.90;85.10;;;;;;5073496;28;20048;-20
2022/09/27 05:13:21;;;;;;;7.63;5.25;;;13.90;85.10;;;;;;5073737;28;20029;-19
2022/09/27 05:15:47;;;;;;;9.07;6.35;;;13.90;84.90;;;;;;5073983;28;20020;-17
2022/09/27 05:18:13;;;;;;;9.50;5.90;;;13.90;84.80;;;;;;5073609;28;20074;-18
2022/09/27 05:20:39;;;;;;;9.20;5.80;;;13.90;84.70;;;;;;5073493;28;20067;-19
2022/09/27 05:23:05;;;;;;;9.80;6.55;;;13.90;84.80;;;;;;5073642;28;20035;-20
2022/09/27 05:25:32;;;;;;;7.90;5.32;;;13.90;85.10;;;;;;5073517;28;20029;-21
2022/09/27 05:27:58;;;;;;;7.38;5.15;;;13.90;85.20;;;;;;5073779;28;20070;-22
2022/09/27 05:30:26;;;;;;;7.00;4.80;;;13.90;85.20;;;;;;5073330;28;20021;-20
2022/09/27 05:32:52;;;;;;;7.70;4.85;;;13.80;85.00;;;;;;5073366;28;20480;-21
2022/09/27 05:35:20;;;;;;;7.90;5.53;;;13.90;85.10;;;;;;5073709;28;20025;-21
2022/09/27 05:37:54;;;;;;;9.02;5.88;;;13.80;85.60;;;;;;5073337;28;20028;-21
2022/09/27 05:40:22;;;;;;;12.20;6.32;;;13.80;85.50;;;;;;5073245;28;20539;-21
2022/09/27 05:42:49;;;;;;;8.30;5.55;;;13.80;85.60;;;;;;5073067;28;20029;-20
2022/09/27 05:45:15;;;;;;;10.55;6.07;;;13.80;85.50;;;;;;5073193;28;20036;-20
2022/09/27 05:47:41;;;;;;;9.70;6.75;;;13.90;85.30;;;;;;5073844;28;20020;-20
2022/09/27 05:50:08;;;;;;;9.38;4.82;;;13.80;85.20;;;;;;5073438;28;20074;-21
2022/09/27 05:52:34;;;;;;;8.25;5.50;;;13.90;85.20;;;;;;5073106;28;20024;-21
2022/09/27 05:55:00;;;;;;;8.18;5.30;;;13.90;85.10;;;;;;5073063;28;20089;-20
2022/09/27 05:57:27;;;;;;;9.98;6.55;;;13.90;84.90;;;;;;5073385;28;20056;-21
2022/09/27 05:59:53;;;;;;;7.90;5.50;;;13.90;84.80;;;;;;5072782;28;20044;-20
2022/09/27 06:02:19;;;;;;;8.65;5.43;;;14.00;84.70;;;;;;5072993;28;20081;-21
2022/09/27 06:04:45;;;;;;;11.48;7.05;;;14.00;84.90;;;;;;5073031;28;20032;-21
2022/09/27 06:07:11;;;;;;;8.50;5.75;;;14.00;85.00;;;;;;5072819;28;20479;-20
2022/09/27 06:09:37;;;;;;;8.23;5.50;;;14.00;84.80;;;;;;5073366;28;20075;-20
2022/09/27 06:12:03;;;;;;;9.23;5.78;;;14.00;84.90;;;;;;5072858;28;20435;-21
2022/09/27 06:14:29;;;;;;;8.43;5.75;;;14.00;85.00;;;;;;5077003;28;20029;-20
2022/09/27 06:16:55;;;;;;;9.75;6.32;;;13.90;85.20;;;;;;5077275;28;20146;-21
2022/09/27 06:19:21;;;;;;;13.70;6.55;;;14.00;85.00;;;;;;5077322;28;20026;-21
2022/09/27 06:21:50;;;;;;;10.27;6.25;;;13.90;85.10;;;;;;5076923;28;20395;-19
2022/09/27 06:24:16;;;;;;;10.32;6.38;;;14.00;85.00;;;;;;5077244;28;20157;-22
2022/09/27 06:26:42;;;;;;;7.78;5.38;;;13.90;85.00;;;;;;5077563;28;20024;-20
2022/09/27 06:29:08;;;;;;;9.38;6.30;;;14.00;85.00;;;;;;5076934;28;20544;-22
2022/09/27 06:31:34;;;;;;;9.18;5.97;;;14.00;85.20;;;;;;5075514;28;20016;-20
2022/09/27 06:34:00;;;;;;;8.57;5.60;;;14.10;85.40;;;;;;5076990;28;20146;-19
2022/09/27 06:36:26;;;;;;;8.25;5.40;;;14.10;85.40;;;;;;5076805;28;20029;-19
2022/09/27 06:38:52;;;;;;;14.23;7.30;;;14.20;85.40;;;;;;5076494;28;20045;-21
2022/09/27 06:41:18;;;;;;;15.40;7.50;;;14.20;85.60;;;;;;5076920;28;20123;-21
2022/09/27 06:43:44;;;;;;;9.10;5.38;;;14.20;85.00;;;;;;5077614;28;20120;-20
2022/09/27 06:46:10;;;;;;;10.02;6.40;;;14.20;85.00;;;;;;5076377;28;20475;-22
2022/09/27 06:48:37;;;;;;;10.80;6.25;;;14.30;85.70;;;;;;5076680;28;20027;-20
2022/09/27 06:51:04;;;;;;;9.80;6.13;;;14.30;85.40;;;;;;5076206;28;20039;-21
2022/09/27 06:53:30;;;;;;;11.73;6.50;;;14.30;85.50;;;;;;5076457;28;20487;-20
2022/09/27 06:56:00;;;;;;;10.02;6.65;;;14.30;85.60;;;;;;5076364;28;20060;-20
2022/09/27 07:01:13;;;;;;;11.52;7.18;;;14.20;86.30;;;;;;5075851;28;20058;-21
2022/09/27 07:03:42;;;;;;;8.30;5.50;;;14.10;86.30;;;;;;5076206;28;20082;-20
2022/09/27 07:06:19;;;;;;;11.48;6.40;;;14.20;86.40;;;;;;5076179;28;20033;-21
2022/09/27 07:08:50;;;;;;;11.30;5.95;;;14.20;86.30;;;;;;5076154;28;20024;-22
2022/09/27 07:11:17;;;;;;;12.75;6.60;;;14.30;85.80;;;;;;5076120;28;20030;-20
2022/09/27 07:13:43;;;;;;;11.68;6.95;;;14.40;85.90;;;;;;5076005;28;20028;-20
2022/09/27 07:16:13;;;;;;;11.95;7.50;;;14.40;86.10;;;;;;5075879;28;20025;-20
2022/09/27 07:18:41;;;;;;;11.77;7.18;;;14.70;86.20;;;;;;5075928;28;20024;-22
2022/09/27 07:21:08;;;;;;;12.70;7.20;;;14.90;86.10;;;;;;5075999;28;20039;-18
2022/09/27 07:23:36;;;;;;;11.38;7.50;;;15.20;85.20;;;;;;5075742;28;20059;-21
2022/09/27 07:26:05;;;;;;;11.80;7.22;;;15.30;84.40;;;;;;5076079;28;20372;-22
2022/09/27 07:28:32;;;;;;;19.23;12.80;;;15.30;83.90;;;;;;5076046;28;20024;-20
2022/09/27 07:31:01;;;;;;;19.52;12.90;;;15.30;83.90;;;;;;5075405;28;20384;-21
2022/09/27 07:33:27;;;;;;;14.18;9.75;;;15.20;83.80;;;;;;5075705;28;20039;-20
2022/09/27 07:35:53;;;;;;;15.00;11.15;;;15.20;83.90;;;;;;5075604;28;20450;-22
2022/09/27 07:38:19;;;;;;;26.65;17.40;;;15.20;83.90;;;;;;5075517;28;20025;-21
2022/09/27 07:40:45;;;;;;;11.07;6.85;;;15.20;84.00;;;;;;5075473;28;20025;-21
2022/09/27 07:43:11;;;;;;;9.73;7.00;;;15.20;84.00;;;;;;5076138;28;20031;-19
2022/09/27 07:45:38;;;;;;;10.65;7.32;;;15.20;84.10;;;;;;5075662;28;20025;-21
2022/09/27 07:48:06;;;;;;;9.40;6.65;;;15.20;84.10;;;;;;5075907;28;20032;-20
2022/09/27 07:50:32;;;;;;;10.25;6.28;;;15.10;84.10;;;;;;5075364;28;20020;-20
2022/09/27 07:52:58;;;;;;;7.38;5.43;;;15.10;84.50;;;;;;5075166;28;20483;-20
2022/09/27 07:55:24;;;;;;;8.90;5.43;;;15.20;84.60;;;;;;5075288;28;20028;-21
2022/09/27 07:57:50;;;;;;;8.82;6.30;;;15.20;84.70;;;;;;5075866;28;20024;-20
2022/09/27 08:00:21;;;;;;;9.10;5.82;;;15.30;85.00;;;;;;5074901;28;20066;-21
2022/09/27 08:02:47;;;;;;;10.35;6.63;;;15.30;85.20;;;;;;5074979;28;20487;-22
2022/09/27 08:05:14;;;;;;;11.50;6.70;;;15.40;85.20;;;;;;5075776;28;20108;-22
2022/09/27 08:07:40;;;;;;;11.73;6.55;;;15.50;84.80;;;;;;5075030;28;20469;-19
2022/09/27 08:10:08;;;;;;;9.27;6.18;;;15.70;84.70;;;;;;5074966;28;20039;-20
2022/09/27 08:12:36;;;;;;;8.68;5.25;;;15.90;84.90;;;;;;5074897;28;20020;-19
2022/09/27 08:15:03;;;;;;;8.13;5.80;;;16.00;84.70;;;;;;5074905;28;20056;-21
2022/09/27 08:17:31;;;;;;;8.48;5.20;;;16.20;84.80;;;;;;5074841;28;20078;-20
2022/09/27 08:19:57;;;;;;;7.22;4.85;;;16.50;84.20;;;;;;5075214;28;20016;-22
2022/09/27 08:22:23;;;;;;;8.30;5.18;;;16.90;83.50;;;;;;5073444;28;20025;-22
2022/09/27 08:24:49;;;;;;;7.32;4.95;;;17.10;82.50;;;;;;5074443;28;20471;-21
2022/09/27 08:27:16;;;;;;;8.13;5.40;;;17.40;82.10;;;;;;5074957;28;20062;-20
2022/09/27 08:29:42;;;;;;;9.27;5.22;;;17.40;81.80;;;;;;5074766;28;20028;-19
2022/09/27 08:32:09;;;;;;;9.65;5.50;;;17.40;80.90;;;;;;5074517;28;20020;-20
2022/09/27 08:34:36;;;;;;;6.53;4.80;;;17.40;81.00;;;;;;5073605;28;20032;-19
2022/09/27 08:37:02;;;;;;;7.85;4.38;;;17.40;81.00;;;;;;5074481;28;20036;-19
2022/09/27 08:39:28;;;;;;;7.93;5.97;;;17.40;81.40;;;;;;5073112;28;20031;-20
2022/09/27 08:42:17;;;;;;;8.20;5.47;;;17.50;81.80;;;;;;5074468;28;20032;-20
2022/09/27 08:45:00;;;;;;;9.15;6.22;;;17.60;81.20;;;;;;5074589;28;20422;-21
2022/09/27 08:47:35;;;;;;;10.23;6.90;;;17.90;81.00;;;;;;5073082;28;20067;-20
2022/09/27 08:50:13;;;;;;;8.18;6.10;;;18.30;81.00;;;;;;5074596;28;20424;-21
2022/09/27 08:52:52;;;;;;;9.40;6.18;;;18.60;79.60;;;;;;5074216;28;20036;-21
2022/09/27 08:55:36;;;;;;;7.68;5.35;;;18.90;79.50;;;;;;5074144;28;20054;-19
2022/09/27 08:58:12;;;;;;;7.38;5.25;;;19.20;78.80;;;;;;5072849;28;20040;-19
2022/09/27 09:00:39;;;;;;;9.07;5.25;;;19.50;78.20;;;;;;5073580;28;20059;-18
2022/09/27 09:03:05;;;;;;;4.68;3.50;;;19.80;76.20;;;;;;5074046;28;20098;-19
2022/09/27 09:05:34;;;;;;;7.10;4.88;;;20.20;77.00;;;;;;5074443;28;20468;-19
2022/09/27 09:08:47;;;;;;;6.13;4.05;;;20.60;75.30;;;;;;5074103;28;20418;-19
2022/09/27 09:15:10;;;;;;;4.78;3.38;;;21.10;72.00;;;;;;5074024;28;20035;-19
2022/09/27 09:17:50;;;;;;;5.07;3.47;;;21.40;70.20;;;;;;5073969;28;20031;-18
2022/09/27 09:20:40;;;;;;;3.80;3.20;;;21.70;70.50;;;;;;5073673;28;20031;-19
2022/09/27 09:23:29;;;;;;;5.03;3.70;;;22.00;69.80;;;;;;5073675;28;20040;-19
2022/09/27 09:26:07;;;;;;;4.28;3.20;;;22.40;68.60;;;;;;5073897;28;20016;-18
2022/09/27 09:29:05;;;;;;;4.85;3.60;;;22.40;67.50;;;;;;5073685;28;20518;-18
2022/09/27 09:31:51;;;;;;;3.95;3.05;;;22.40;64.60;;;;;;5073373;28;20109;-19
2022/09/27 09:34:46;;;;;;;4.90;3.60;;;22.40;67.60;;;;;;5073481;28;20028;-19
2022/09/27 09:37:26;;;;;;;4.57;3.75;;;22.50;67.60;;;;;;5073804;28;20016;-19
2022/09/27 09:40:22;;;;;;;5.10;3.80;;;22.60;66.60;;;;;;5073320;28;20028;-19
2022/09/27 09:43:43;;;;;;;5.60;4.15;;;22.60;66.50;;;;;;5062170;28;20513;-20
2022/09/27 09:46:19;;;;;;;5.10;3.50;;;22.60;66.50;;;;;;5011302;28;20088;-18
2022/09/27 09:49:01;;;;;;;5.40;4.03;;;22.90;64.60;;;;;;5011761;28;20061;-19
2022/09/27 09:51:34;;;;;;;4.97;3.42;;;23.30;62.60;;;;;;5011669;28;20121;-19
2022/09/27 09:54:27;;;;;;;;;;;23.60;62.60;;;;;;5012460;28;20037;-19
2022/09/27 09:57:07;;;;;;;4.53;3.72;;;23.90;59.90;;;;;;4989289;28;19916;-19
2022/09/27 09:59:42;;;;;;;3.47;3.13;;;24.20;59.90;;;;;;5011555;28;20033;-19
2022/09/27 10:02:43;;;;;;;4.28;3.15;;;24.50;60.10;;;;;;5011379;28;20038;-20
2022/09/27 10:05:21;;;;;;;5.63;3.10;;;24.90;58.70;;;;;;4972228;28;20054;-19
2022/09/27 10:07:49;;;;;;;4.60;3.10;;;25.10;54.30;;;;;;4972341;28;20030;-19
2022/09/27 10:10:18;;;;;;;4.38;3.45;;;25.20;52.80;;;;;;4972576;28;20511;-19
2022/09/27 10:12:45;;;;;;;3.85;3.30;;;25.40;53.50;;;;;;4972220;28;20193;-18
2022/09/27 10:15:23;;;;;;;4.10;3.33;;;25.50;54.20;;;;;;4971951;28;20166;-21
2022/09/27 10:17:55;;;;;;;4.57;3.13;;;25.60;53.30;;;;;;5041856;28;20037;-20
2022/09/27 10:20:37;;;;;;;3.83;3.00;;;25.80;53.90;;;;;;5050879;28;20032;-19
2022/09/27 10:23:14;;;;;;;4.65;3.47;;;25.90;54.00;;;;;;5050849;28;20048;-20
2022/09/27 10:26:03;;;;;;;3.05;2.75;;;25.90;54.70;;;;;;5050812;28;20383;-18
2022/09/27 10:28:32;;;;;;;3.30;3.00;;;25.80;52.00;;;;;;5050874;28;20033;-19
2022/09/27 10:31:02;;;;;;;3.47;3.00;;;25.80;54.80;;;;;;5050393;28;20024;-17
2022/09/27 10:33:30;;;;;;;4.00;3.17;;;26.00;52.60;;;;;;5050686;28;20377;-17
2022/09/27 10:35:57;;;;;;;4.15;3.35;;;26.20;49.90;;;;;;5050685;28;20037;-18
2022/09/27 10:38:26;;;;;;;4.78;3.42;;;26.40;49.60;;;;;;5050666;28;20037;-18
2022/09/27 10:40:54;;;;;;;3.35;2.92;;;26.60;49.40;;;;;;5055368;28;20039;-18
2022/09/27 10:43:36;;;;;;;3.05;2.70;;;26.70;49.80;;;;;;5073211;28;20032;-18
2022/09/27 10:46:07;;;;;;;4.57;2.83;;;26.90;48.20;;;;;;5072588;28;20114;-17
2022/09/27 10:48:35;;;;;;;4.88;2.97;;;27.00;46.80;;;;;;5073731;28;20130;-18
2022/09/27 10:51:05;;;;;;;4.30;2.92;;;27.10;46.80;;;;;;5073070;28;20019;-19
2022/09/27 10:53:34;;;;;;;5.75;3.38;;;27.20;45.80;;;;;;5072686;28;20100;-19
2022/09/27 10:56:01;;;;;;;4.18;3.15;;;27.10;46.40;;;;;;5073191;28;20486;-19
2022/09/27 10:58:32;;;;;;;4.93;4.30;;;26.70;47.10;;;;;;5073922;28;20031;-18
2022/09/27 11:01:07;;;;;;;4.85;3.85;;;26.10;48.10;;;;;;5075855;28;20415;-19
2022/09/27 11:03:38;;;;;;;4.60;3.38;;;25.40;49.30;;;;;;5076294;28;20119;-18
2022/09/27 11:06:22;;;;;;;4.35;3.25;;;25.20;51.30;;;;;;5076540;28;20531;-19
2022/09/27 11:08:50;;;;;;;3.42;2.97;;;25.40;51.90;;;;;;5076100;28;20078;-18
2022/09/27 11:11:20;;;;;;;4.15;2.75;;;25.90;51.70;;;;;;5076438;28;20070;-18
2022/09/27 11:14:30;;;;;;;4.32;3.15;;;26.30;50.40;;;;;;5076001;28;20029;-19
2022/09/27 11:17:06;;;;;;;2.85;2.55;;;26.80;49.30;;;;;;5075725;28;20029;-18
2022/09/27 11:19:48;;;;;;;4.88;3.30;;;26.90;48.60;;;;;;5076014;28;20048;-18
2022/09/27 11:22:57;;;;;;;3.38;2.90;;;27.20;46.70;;;;;;5076194;28;20033;-20
2022/09/27 11:25:55;;;;;;;4.63;3.47;;;27.50;45.30;;;;;;5072153;28;20119;-19
2022/09/27 11:28:27;;;;;;;5.93;3.50;;;27.90;44.30;;;;;;5076155;28;20086;-17
2022/09/27 11:31:17;;;;;;;6.45;4.43;;;28.10;44.30;;;;;;5075738;28;20025;-18
2022/09/27 11:34:12;;;;;;;5.80;3.92;;;28.40;43.50;;;;;;5076016;28;20059;-18
2022/09/27 11:37:04;;;;;;;6.28;4.03;;;28.50;43.30;;;;;;5075648;28;20074;-19
2022/09/27 11:39:54;;;;;;;6.35;4.38;;;28.40;43.90;;;;;;5074472;28;20059;-19
2022/09/27 11:42:45;;;;;;;5.03;4.05;;;28.30;44.50;;;;;;5074297;28;20043;-19
2022/09/27 11:45:53;;;;;;;5.55;3.30;;;27.90;45.10;;;;;;5073924;28;20028;-18
2022/09/27 11:48:36;;;;;;;6.30;4.10;;;27.30;46.50;;;;;;5067682;28;20032;-18
2022/09/27 11:51:25;;;;;;;7.47;5.65;;;27.50;47.20;;;;;;5076042;28;20033;-18
2022/09/27 11:54:20;;;;;;;5.82;3.97;;;27.60;47.10;;;;;;5076003;28;20500;-17
2022/09/27 11:56:52;;;;;;;6.93;4.55;;;27.80;47.70;;;;;;5073102;28;20029;-18
2022/09/27 11:59:37;;;;;;;6.57;5.15;;;28.40;46.90;;;;;;5075303;28;20036;-18
2022/09/27 12:02:31;;;;;;;6.22;4.47;;;28.50;45.00;;;;;;5074995;28;20371;-18
2022/09/27 12:05:01;;;;;;;6.50;4.72;;;28.20;46.00;;;;;;5075074;28;20025;-19
2022/09/27 12:07:30;;;;;;;7.35;4.30;;;27.60;47.30;;;;;;5075065;28;20025;-18
2022/09/27 12:10:04;;;;;;;6.18;4.68;;;27.10;48.20;;;;;;5073764;28;20430;-19
2022/09/27 12:12:34;;;;;;;6.57;4.95;;;26.90;47.70;;;;;;5075659;28;20024;-19
2022/09/27 12:15:32;;;;;;;5.15;4.10;;;27.20;47.90;;;;;;5074684;28;20476;-18
2022/09/27 12:18:28;;;;;;;6.82;4.72;;;27.50;47.60;;;;;;5074905;28;20571;-19
2022/09/27 12:20:55;;;;;;;8.68;5.78;;;27.60;46.70;;;;;;5074827;28;20032;-20
2022/09/27 12:23:46;;;;;;;6.38;4.30;;;27.70;46.00;;;;;;5075056;28;20032;-20
2022/09/27 12:26:27;;;;;;;6.45;4.43;;;27.40;45.90;;;;;;5074592;28;20021;-19
2022/09/27 12:28:58;;;;;;;6.68;5.32;;;27.40;46.70;;;;;;5074854;28;20051;-19
2022/09/27 12:31:34;;;;;;;7.50;5.35;;;27.80;46.70;;;;;;5074554;28;20028;-19
2022/09/27 12:34:15;;;;;;;4.60;4.10;;;27.90;45.70;;;;;;5074876;28;20020;-19
2022/09/27 12:36:52;;;;;;;4.25;3.60;;;27.80;46.40;;;;;;5074837;28;20021;-20
2022/09/27 12:39:43;;;;;;;9.35;5.20;;;27.70;46.60;;;;;;5074457;28;20029;-19
2022/09/27 12:42:24;;;;;;;6.63;4.30;;;27.40;46.20;;;;;;5074627;28;20036;-19
2022/09/27 12:44:51;;;;;;;6.95;5.70;;;27.20;47.90;;;;;;5074180;28;20027;-18
2022/09/27 12:47:22;;;;;;;8.35;5.68;;;26.80;47.80;;;;;;5074264;28;20103;-18
2022/09/27 12:50:06;;;;;;;6.32;3.97;;;26.60;48.40;;;;;;5074550;28;20025;-19
2022/09/27 12:52:41;;;;;;;7.13;5.10;;;26.80;48.50;;;;;;5074218;28;20047;-19
2022/09/27 12:55:14;;;;;;;7.68;6.50;;;27.00;47.40;;;;;;5074052;28;20017;-20
2022/09/27 12:57:59;;;;;;;8.07;5.57;;;27.10;46.70;;;;;;5074189;28;20017;-19
2022/09/27 13:00:33;;;;;;;5.40;3.90;;;27.00;47.00;;;;;;5073976;28;20052;-19
2022/09/27 13:03:18;;;;;;;5.65;4.18;;;27.20;47.10;;;;;;5073948;28;20036;-20
2022/09/27 13:06:10;;;;;;;11.02;5.90;;;27.80;46.10;;;;;;5074788;28;20033;-19
2022/09/27 13:09:26;;;;;;;9.10;6.18;;;28.30;45.20;;;;;;5073907;28;20066;-19
2022/09/27 13:12:18;;;;;;;10.48;5.55;;;28.30;43.50;;;;;;5040138;28;20119;-19
2022/09/27 13:15:12;;;;;;;6.15;4.28;;;28.00;45.00;;;;;;5073853;28;20387;-19
2022/09/27 13:17:42;;;;;;;8.75;5.10;;;28.30;45.40;;;;;;5073967;28;20396;-19
2022/09/27 13:20:26;;;;;;;4.70;3.45;;;28.80;44.50;;;;;;5073655;28;20025;-17